createdAt,value
2023-05-14T00:00:47.494Z,2.35
2023-05-14T00:03:14.535Z,2.70
2023-05-14T00:05:41.273Z,3.05
2023-05-14T00:08:08.023Z,2.58
2023-05-14T00:10:35.077Z,2.90
2023-05-14T00:13:01.668Z,3.33
2023-05-14T00:15:28.233Z,3.63
2023-05-14T00:17:54.811Z,3.95
2023-05-14T00:20:21.696Z,3.92
2023-05-14T00:22:48.412Z,4.68
2023-05-14T00:25:14.946Z,5.75
2023-05-14T00:27:41.662Z,6.35
2023-05-14T00:30:08.516Z,6.15
2023-05-14T00:32:35.150Z,6.63
2023-05-14T00:35:04.307Z,6.43
2023-05-14T00:37:30.927Z,6.18
2023-05-14T00:39:57.928Z,5.80
2023-05-14T00:42:24.647Z,5.90
2023-05-14T00:44:51.159Z,6.57
2023-05-14T00:47:18.842Z,5.93
2023-05-14T00:49:45.717Z,6.18
2023-05-14T00:52:14.525Z,5.47
2023-05-14T00:54:41.159Z,5.57
2023-05-14T00:57:07.945Z,5.13
2023-05-14T00:59:34.863Z,4.85
2023-05-14T01:02:02.010Z,6.03
2023-05-14T01:04:29.054Z,5.65
2023-05-14T01:07:20.173Z,5.00
2023-05-14T01:10:23.708Z,5.68
2023-05-14T01:12:59.095Z,5.25
2023-05-14T01:15:32.204Z,4.28
2023-05-14T01:18:09.996Z,5.43
2023-05-14T01:20:36.719Z,5.85
2023-05-14T01:23:03.714Z,5.10
2023-05-14T01:25:31.411Z,5.00
2023-05-14T01:27:57.880Z,4.65
2023-05-14T01:30:39.577Z,5.68
2023-05-14T01:33:10.330Z,5.10
2023-05-14T01:35:37.267Z,4.88
2023-05-14T01:38:06.643Z,4.80
2023-05-14T01:40:34.334Z,5.15
2023-05-14T01:43:01.775Z,5.90
2023-05-14T01:45:28.419Z,5.78
2023-05-14T01:47:58.003Z,5.45
2023-05-14T01:50:25.138Z,5.63
2023-05-14T01:52:56.320Z,6.93
2023-05-14T01:55:24.671Z,4.97
2023-05-14T01:57:52.701Z,5.38
2023-05-14T02:00:20.398Z,5.55
2023-05-14T02:02:47.023Z,5.25
2023-05-14T02:05:13.695Z,6.05
2023-05-14T02:07:40.418Z,6.53
2023-05-14T02:10:07.818Z,6.85
2023-05-14T02:12:34.416Z,6.15
2023-05-14T02:15:01.065Z,5.45
2023-05-14T02:17:27.707Z,6.07
2023-05-14T02:19:54.358Z,4.88
2023-05-14T02:22:20.962Z,5.30
2023-05-14T02:24:47.580Z,5.47
2023-05-14T02:27:14.097Z,4.78
2023-05-14T02:29:40.687Z,5.40
2023-05-14T02:32:07.585Z,5.97
2023-05-14T02:34:34.535Z,5.25
2023-05-14T02:37:01.183Z,5.68
2023-05-14T02:39:27.993Z,5.55
2023-05-14T02:41:55.067Z,5.22
2023-05-14T02:44:21.744Z,5.15
2023-05-14T02:46:48.293Z,6.00
2023-05-14T02:49:14.780Z,5.32
2023-05-14T02:51:41.318Z,4.97
2023-05-14T02:54:08.111Z,4.63
2023-05-14T02:56:34.634Z,4.03
2023-05-14T02:59:01.173Z,3.85
2023-05-14T03:01:28.214Z,4.78
2023-05-14T03:03:55.506Z,3.88
2023-05-14T03:06:22.031Z,3.75
2023-05-14T03:08:48.570Z,4.32
2023-05-14T03:11:15.139Z,3.85
2023-05-14T03:13:41.678Z,4.00
2023-05-14T03:16:08.407Z,4.22
2023-05-14T03:18:36.623Z,3.47
2023-05-14T03:21:03.986Z,4.00
2023-05-14T03:23:32.052Z,3.13
2023-05-14T03:25:58.895Z,3.80
2023-05-14T03:28:26.220Z,3.22
2023-05-14T03:30:53.409Z,3.25
2023-05-14T03:33:20.124Z,2.55
2023-05-14T03:35:46.707Z,2.75
2023-05-14T03:38:13.228Z,2.78
2023-05-14T03:40:39.795Z,2.35
2023-05-14T03:43:06.354Z,2.50
2023-05-14T03:45:33.460Z,1.92
2023-05-14T03:48:00.053Z,2.05
2023-05-14T03:50:26.987Z,1.80
2023-05-14T03:52:53.653Z,1.98
2023-05-14T03:55:20.557Z,2.40
2023-05-14T03:57:48.135Z,2.15
2023-05-14T04:00:15.131Z,2.60
2023-05-14T04:02:42.482Z,2.33
2023-05-14T04:05:09.331Z,2.53
2023-05-14T04:07:35.852Z,2.78
2023-05-14T04:10:04.771Z,3.10
2023-05-14T04:12:31.505Z,2.28
2023-05-14T04:14:58.524Z,2.70
2023-05-14T04:17:25.792Z,2.58
2023-05-14T04:19:52.410Z,2.70
2023-05-14T04:22:19.047Z,2.40
2023-05-14T04:24:46.016Z,2.85
2023-05-14T04:27:19.746Z,2.55
2023-05-14T04:29:46.273Z,2.92
2023-05-14T04:32:12.818Z,2.85
2023-05-14T04:34:40.019Z,2.60
2023-05-14T04:37:06.680Z,2.92
2023-05-14T04:39:33.204Z,2.40
2023-05-14T04:41:59.745Z,2.30
2023-05-14T04:44:26.350Z,2.25
2023-05-14T04:46:52.934Z,2.50
2023-05-14T04:49:20.910Z,2.22
2023-05-14T04:51:48.230Z,2.47
2023-05-14T04:54:14.863Z,1.70
2023-05-14T04:56:41.445Z,2.05
2023-05-14T04:59:07.986Z,2.30
2023-05-14T05:01:34.633Z,1.83
2023-05-14T05:04:01.287Z,1.83
2023-05-14T05:06:28.366Z,2.25
2023-05-14T05:08:55.451Z,2.28
2023-05-14T05:11:22.066Z,2.08
2023-05-14T05:13:48.597Z,2.33
2023-05-14T05:16:15.721Z,2.30
2023-05-14T05:18:42.467Z,2.35
2023-05-14T05:21:09.008Z,2.47
2023-05-14T05:23:35.666Z,2.72
2023-05-14T05:26:02.257Z,2.70
2023-05-14T05:28:28.793Z,1.90
2023-05-14T05:30:55.436Z,2.08
2023-05-14T05:33:22.133Z,2.00
2023-05-14T05:35:50.140Z,1.85
2023-05-14T05:38:18.338Z,1.88
2023-05-14T05:40:44.992Z,1.90
2023-05-14T05:43:13.844Z,2.08
2023-05-14T05:45:41.546Z,2.17
2023-05-14T05:48:08.186Z,1.95
2023-05-14T05:50:35.027Z,2.33
2023-05-14T05:53:01.630Z,2.08
2023-05-14T05:55:29.000Z,2.22
2023-05-14T05:57:55.634Z,2.17
2023-05-14T06:00:22.734Z,2.42
2023-05-14T06:02:49.482Z,2.35
2023-05-14T06:05:16.159Z,2.72
2023-05-14T06:07:42.781Z,2.63
2023-05-14T06:10:09.547Z,2.90
2023-05-14T06:12:36.378Z,2.47
2023-05-14T06:15:03.069Z,2.72
2023-05-14T06:17:29.706Z,2.78
2023-05-14T06:19:56.282Z,2.67
2023-05-14T06:22:22.855Z,3.03
2023-05-14T06:24:49.451Z,2.40
2023-05-14T06:27:16.097Z,3.63
2023-05-14T06:29:42.644Z,3.25
2023-05-14T06:32:09.343Z,3.22
2023-05-14T06:34:36.020Z,2.95
2023-05-14T06:37:04.209Z,2.88
2023-05-14T06:39:31.047Z,3.30
2023-05-14T06:41:57.585Z,3.53
2023-05-14T06:44:24.110Z,3.40
2023-05-14T06:46:50.716Z,3.28
2023-05-14T06:49:17.311Z,3.65
2023-05-14T06:51:44.152Z,3.80
2023-05-14T06:54:10.840Z,4.70
2023-05-14T06:56:37.422Z,3.80
2023-05-14T06:59:04.008Z,4.60
2023-05-14T07:01:30.715Z,4.57
2023-05-14T07:03:57.460Z,4.82
2023-05-14T07:06:24.086Z,4.55
2023-05-14T07:08:50.600Z,5.03
2023-05-14T07:11:17.164Z,4.78
2023-05-14T07:13:43.720Z,4.88
2023-05-14T07:16:10.503Z,4.45
2023-05-14T07:18:37.156Z,4.03
2023-05-14T07:21:06.570Z,3.90
2023-05-14T07:23:36.115Z,3.80
2023-05-14T07:26:03.297Z,4.40
2023-05-14T07:28:29.911Z,4.07
2023-05-14T07:30:56.573Z,3.80
2023-05-14T07:33:23.495Z,3.80
2023-05-14T07:35:50.561Z,3.85
2023-05-14T07:38:17.383Z,3.78
2023-05-14T07:40:43.942Z,3.80
2023-05-14T07:43:11.177Z,2.80
2023-05-14T07:45:39.309Z,3.22
2023-05-14T07:48:06.108Z,3.42
2023-05-14T07:50:32.821Z,3.80
2023-05-14T07:52:59.443Z,3.80
2023-05-14T07:55:26.050Z,3.08
2023-05-14T07:57:52.656Z,4.00
2023-05-14T08:00:19.432Z,3.75
2023-05-14T08:02:46.202Z,4.00
2023-05-14T08:05:13.668Z,3.80
2023-05-14T08:07:40.208Z,3.50
2023-05-14T08:10:07.824Z,4.68
2023-05-14T08:12:34.453Z,4.30
2023-05-14T08:15:01.076Z,3.97
2023-05-14T08:17:27.696Z,4.70
2023-05-14T08:19:54.460Z,3.78
2023-05-14T08:22:21.808Z,4.07
2023-05-14T08:24:48.899Z,3.85
2023-05-14T08:27:16.643Z,4.28
2023-05-14T08:29:44.054Z,4.63
2023-05-14T08:32:19.811Z,4.32
2023-05-14T08:34:49.731Z,4.45
2023-05-14T08:37:16.268Z,4.05
2023-05-14T08:39:42.782Z,4.25
2023-05-14T08:42:12.676Z,4.65
2023-05-14T08:44:47.780Z,4.82
2023-05-14T08:47:17.750Z,5.07
2023-05-14T08:49:47.305Z,5.22
2023-05-14T08:52:16.394Z,4.60
2023-05-14T08:54:43.256Z,5.13
2023-05-14T08:57:11.207Z,4.30
2023-05-14T08:59:37.900Z,4.13
2023-05-14T09:02:06.348Z,4.75
2023-05-14T09:04:33.860Z,4.60
2023-05-14T09:07:02.134Z,4.93
2023-05-14T09:09:29.022Z,4.82
2023-05-14T09:11:55.732Z,4.95
2023-05-14T09:14:23.903Z,4.93
2023-05-14T09:16:51.536Z,5.40
2023-05-14T09:19:19.471Z,4.80
2023-05-14T09:21:48.657Z,4.70
2023-05-14T09:24:23.299Z,4.55
2023-05-14T09:26:54.303Z,4.43
2023-05-14T09:29:21.129Z,5.20
2023-05-14T09:31:52.326Z,4.13
2023-05-14T09:34:26.737Z,4.20
2023-05-14T09:39:26.439Z,3.88
2023-05-14T09:41:53.525Z,4.07
2023-05-14T09:44:20.838Z,3.65
2023-05-14T09:46:48.882Z,3.97
2023-05-14T09:49:15.589Z,3.53
2023-05-14T09:51:42.262Z,4.13
2023-05-14T09:54:09.117Z,3.45
2023-05-14T09:56:36.890Z,2.92
2023-05-14T09:59:04.304Z,3.17
2023-05-14T10:01:33.066Z,3.03
2023-05-14T10:04:00.609Z,3.30
2023-05-14T10:06:30.658Z,2.70
2023-05-14T10:09:04.075Z,3.03
2023-05-14T10:11:37.196Z,2.60
2023-05-14T10:14:08.667Z,2.70
2023-05-14T10:16:38.330Z,2.72
2023-05-14T10:19:10.374Z,3.15
2023-05-14T10:21:39.001Z,2.78
2023-05-14T10:24:07.518Z,2.85
2023-05-14T10:26:39.213Z,2.83
2023-05-14T10:29:06.735Z,2.75
2023-05-14T10:31:55.848Z,2.97
2023-05-14T10:34:37.834Z,2.88
2023-05-14T10:37:06.771Z,2.78
2023-05-14T10:39:48.589Z,3.00
2023-05-14T10:42:19.276Z,2.95
2023-05-14T10:44:52.657Z,2.85
2023-05-14T10:47:19.884Z,2.30
2023-05-14T10:49:50.162Z,1.98
2023-05-14T10:52:19.336Z,2.50
2023-05-14T10:55:10.212Z,2.25
2023-05-14T10:57:38.963Z,2.67
2023-05-14T11:00:09.885Z,2.33
2023-05-14T11:02:38.211Z,2.10
2023-05-14T11:05:14.356Z,2.72
2023-05-14T11:07:46.106Z,2.28
2023-05-14T11:10:17.784Z,2.30
2023-05-14T11:12:46.788Z,2.10
2023-05-14T11:15:19.982Z,1.83
2023-05-14T11:17:48.459Z,2.00
2023-05-14T11:20:16.651Z,1.80
2023-05-14T11:22:44.460Z,2.50
2023-05-14T11:25:14.714Z,1.90
2023-05-14T11:27:43.464Z,1.75
2023-05-14T11:30:14.876Z,1.85
2023-05-14T11:32:43.583Z,1.95
2023-05-14T11:35:10.397Z,1.88
2023-05-14T11:37:37.066Z,1.98
2023-05-14T11:40:12.182Z,2.00
2023-05-14T11:42:38.804Z,1.58
2023-05-14T11:45:06.293Z,1.67
2023-05-14T11:47:32.949Z,2.05
2023-05-14T11:50:00.910Z,1.83
2023-05-14T11:52:27.545Z,1.63
2023-05-14T11:54:54.140Z,1.50
2023-05-14T11:57:22.048Z,1.55
2023-05-14T11:59:55.156Z,1.70
2023-05-14T12:02:22.891Z,1.70
2023-05-14T12:04:52.141Z,2.08
2023-05-14T12:07:19.102Z,1.75
2023-05-14T12:09:49.673Z,1.80
2023-05-14T12:12:21.806Z,1.40
2023-05-14T12:14:49.673Z,1.67
2023-05-14T12:17:19.126Z,1.80
2023-05-14T12:19:48.455Z,1.73
2023-05-14T12:22:17.768Z,1.40
2023-05-14T12:24:52.506Z,2.00
2023-05-14T12:27:23.433Z,1.65
2023-05-14T12:29:53.504Z,1.42
2023-05-14T12:32:20.357Z,1.70
2023-05-14T12:34:46.870Z,1.60
2023-05-14T12:37:13.429Z,1.83
2023-05-14T12:39:40.009Z,1.08
2023-05-14T12:42:06.560Z,1.40
2023-05-14T12:44:33.263Z,1.40
2023-05-14T12:47:00.000Z,1.50
2023-05-14T12:49:27.100Z,1.60
2023-05-14T12:52:07.678Z,1.58
2023-05-14T12:54:42.970Z,1.23
2023-05-14T12:57:10.279Z,1.55
2023-05-14T12:59:37.166Z,1.75
2023-05-14T13:02:03.828Z,1.80
2023-05-14T13:04:30.604Z,1.38
2023-05-14T13:06:57.240Z,1.50
2023-05-14T13:09:23.920Z,2.03
2023-05-14T13:11:50.557Z,1.90
2023-05-14T13:14:18.402Z,1.65
2023-05-14T13:16:46.738Z,1.65
2023-05-14T13:19:13.408Z,2.10
2023-05-14T13:21:40.386Z,1.73
2023-05-14T13:24:07.252Z,1.60
2023-05-14T13:26:34.308Z,1.88
2023-05-14T13:29:00.839Z,1.70
2023-05-14T13:31:27.788Z,1.58
2023-05-14T13:33:54.680Z,1.27
2023-05-14T13:36:21.324Z,1.48
2023-05-14T13:38:48.523Z,1.40
2023-05-14T13:41:15.335Z,1.13
2023-05-14T13:43:41.909Z,1.30
2023-05-14T13:46:08.591Z,1.58
2023-05-14T13:48:37.248Z,1.63
2023-05-14T13:51:03.926Z,1.30
2023-05-14T13:53:31.071Z,2.03
2023-05-14T13:55:58.657Z,1.52
2023-05-14T13:58:26.128Z,1.70
2023-05-14T14:00:53.211Z,1.77
2023-05-14T14:03:20.025Z,1.60
2023-05-14T14:05:46.622Z,1.70
2023-05-14T14:10:48.425Z,1.27
2023-05-14T14:13:15.027Z,1.40
2023-05-14T14:15:41.701Z,1.40
2023-05-14T14:18:08.258Z,1.40
2023-05-14T14:20:35.036Z,1.45
2023-05-14T14:23:01.605Z,1.60
2023-05-14T14:25:28.163Z,1.38
2023-05-14T14:27:54.746Z,1.63
2023-05-14T14:30:21.305Z,1.80
2023-05-14T14:32:49.201Z,1.35
2023-05-14T14:35:17.624Z,1.50
2023-05-14T14:37:48.924Z,1.33
2023-05-14T14:40:16.957Z,1.35
2023-05-14T14:42:43.930Z,1.50
2023-05-14T14:45:10.807Z,1.60
2023-05-14T14:47:37.481Z,1.50
2023-05-14T14:50:04.997Z,1.33
2023-05-14T14:52:31.565Z,1.40
2023-05-14T14:54:58.149Z,1.42
2023-05-14T14:57:24.787Z,1.60
2023-05-14T14:59:51.303Z,1.48
2023-05-14T15:02:17.979Z,2.00
2023-05-14T15:04:44.487Z,1.50
2023-05-14T15:07:11.275Z,1.50
2023-05-14T15:09:37.828Z,1.70
2023-05-14T15:12:04.937Z,1.52
2023-05-14T15:14:31.712Z,1.63
2023-05-14T15:16:58.377Z,1.42
2023-05-14T15:19:25.162Z,1.40
2023-05-14T15:21:51.920Z,1.77
2023-05-14T15:24:18.877Z,1.35
2023-05-14T15:26:45.977Z,1.42
2023-05-14T15:29:12.579Z,1.60
2023-05-14T15:31:39.166Z,1.70
2023-05-14T15:34:05.703Z,1.90
2023-05-14T15:36:32.283Z,2.00
2023-05-14T15:38:59.894Z,2.10
2023-05-14T15:41:28.756Z,2.10
2023-05-14T15:43:56.149Z,2.05
2023-05-14T15:46:24.109Z,2.47
2023-05-14T15:48:50.687Z,2.15
2023-05-14T15:51:17.262Z,2.58
2023-05-14T15:53:43.938Z,2.13
2023-05-14T15:56:10.578Z,2.15
2023-05-14T15:58:37.147Z,2.15
2023-05-14T16:01:03.760Z,2.42
2023-05-14T16:03:30.432Z,2.40
2023-05-14T16:05:57.202Z,2.50
2023-05-14T16:08:23.761Z,2.55
2023-05-14T16:10:50.268Z,2.40
2023-05-14T16:13:16.932Z,2.75
2023-05-14T16:15:43.572Z,2.58
2023-05-14T16:18:11.010Z,2.63
2023-05-14T16:20:37.620Z,2.92
2023-05-14T16:23:04.178Z,3.30
2023-05-14T16:25:31.449Z,2.78
2023-05-14T16:27:58.028Z,3.10
2023-05-14T16:30:24.906Z,2.63
2023-05-14T16:32:51.791Z,1.85
2023-05-14T16:35:18.393Z,1.60
2023-05-14T16:37:44.977Z,2.22
2023-05-14T16:40:12.897Z,2.05
2023-05-14T16:42:39.426Z,2.47
2023-05-14T16:45:06.459Z,1.90
2023-05-14T16:47:33.108Z,2.25
2023-05-14T16:49:59.667Z,2.65
2023-05-14T16:52:26.226Z,2.47
2023-05-14T16:54:52.775Z,3.35
2023-05-14T16:57:19.323Z,3.60
2023-05-14T16:59:46.372Z,3.53
2023-05-14T17:02:13.432Z,4.30
2023-05-14T17:04:42.497Z,5.13
2023-05-14T17:07:09.498Z,4.28
2023-05-14T17:09:36.282Z,4.82
2023-05-14T17:12:02.865Z,5.43
2023-05-14T17:14:29.443Z,6.93
2023-05-14T17:16:55.928Z,6.45
2023-05-14T17:19:22.496Z,4.10
2023-05-14T17:21:49.092Z,3.50
2023-05-14T17:24:15.607Z,4.63
2023-05-14T17:26:42.367Z,4.10
2023-05-14T17:29:08.922Z,4.40
2023-05-14T17:31:35.864Z,4.05
2023-05-14T17:34:02.471Z,3.58
2023-05-14T17:36:29.038Z,3.40
2023-05-14T17:38:55.673Z,3.08
2023-05-14T17:41:22.173Z,3.20
2023-05-14T17:43:48.754Z,3.33
2023-05-14T17:46:15.936Z,3.45
2023-05-14T17:48:42.569Z,4.65
2023-05-14T17:51:09.123Z,4.85
2023-05-14T17:53:35.719Z,5.65
2023-05-14T17:56:02.290Z,5.63
2023-05-14T17:58:28.855Z,5.20
2023-05-14T18:00:55.633Z,5.10
2023-05-14T18:03:22.303Z,6.15
2023-05-14T18:05:48.925Z,4.65
2023-05-14T18:08:15.833Z,5.22
2023-05-14T18:10:42.444Z,5.47
2023-05-14T18:13:08.984Z,4.55
2023-05-14T18:15:36.654Z,5.03
2023-05-14T18:18:03.306Z,4.70
2023-05-14T18:20:29.925Z,4.68
2023-05-14T18:22:56.488Z,4.97
2023-05-14T18:25:23.342Z,4.85
2023-05-14T18:27:50.135Z,5.55
2023-05-14T18:30:17.297Z,5.75
2023-05-14T18:32:44.870Z,4.70
2023-05-14T18:35:12.716Z,4.82
2023-05-14T18:37:39.761Z,5.20
2023-05-14T18:40:07.065Z,4.78
2023-05-14T18:42:34.375Z,5.85
2023-05-14T18:45:01.527Z,4.90
2023-05-14T18:47:28.391Z,5.30
2023-05-14T18:49:57.722Z,4.82
2023-05-14T18:52:24.825Z,5.35
2023-05-14T18:54:51.470Z,5.20
2023-05-14T18:57:17.997Z,4.75
2023-05-14T18:59:44.838Z,5.75
2023-05-14T19:02:11.434Z,5.47
2023-05-14T19:04:50.547Z,5.45
2023-05-14T19:07:17.658Z,6.05
2023-05-14T19:09:44.186Z,5.72
2023-05-14T19:12:10.748Z,6.03
2023-05-14T19:14:37.409Z,6.20
2023-05-14T19:17:04.748Z,6.75
2023-05-14T19:19:31.326Z,6.57
2023-05-14T19:21:57.874Z,6.97
2023-05-14T19:24:24.770Z,6.90
2023-05-14T19:26:51.841Z,6.20
2023-05-14T19:29:18.380Z,6.05
2023-05-14T19:31:45.239Z,6.07
2023-05-14T19:34:11.775Z,6.70
2023-05-14T19:36:38.467Z,6.90
2023-05-14T19:39:05.305Z,6.65
2023-05-14T19:41:31.842Z,7.43
2023-05-14T19:43:58.440Z,6.38
2023-05-14T19:46:25.208Z,6.35
2023-05-14T19:48:52.788Z,7.00
2023-05-14T19:51:19.378Z,6.93
2023-05-14T19:53:46.089Z,7.00
2023-05-14T19:56:12.648Z,6.93
2023-05-14T19:58:39.412Z,6.63
2023-05-14T20:01:05.992Z,7.18
2023-05-14T20:03:33.472Z,7.25
2023-05-14T20:06:00.080Z,7.13
2023-05-14T20:08:26.852Z,6.90
2023-05-14T20:10:53.581Z,6.57
2023-05-14T20:13:21.016Z,6.97
2023-05-14T20:15:48.488Z,8.00
2023-05-14T20:18:15.542Z,8.52
2023-05-14T20:20:42.820Z,9.02
2023-05-14T20:23:09.413Z,8.63
2023-05-14T20:25:35.976Z,8.25
2023-05-14T20:28:02.506Z,8.40
2023-05-14T20:30:29.235Z,7.82
2023-05-14T20:32:56.436Z,6.93
2023-05-14T20:35:23.490Z,7.38
2023-05-14T20:37:50.499Z,7.82
2023-05-14T20:40:17.222Z,7.70
2023-05-14T20:42:43.885Z,7.15
2023-05-14T20:45:10.948Z,7.15
2023-05-14T20:47:37.655Z,7.22
2023-05-14T20:50:04.804Z,7.68
2023-05-14T20:52:31.479Z,7.03
2023-05-14T20:55:00.787Z,7.38
2023-05-14T20:57:28.388Z,7.22
2023-05-14T20:59:54.996Z,7.45
2023-05-14T21:02:21.603Z,7.30
2023-05-14T21:04:48.277Z,7.35
2023-05-14T21:07:14.985Z,7.20
2023-05-14T21:09:42.024Z,7.18
2023-05-14T21:12:08.999Z,7.47
2023-05-14T21:14:35.643Z,6.68
2023-05-14T21:17:02.311Z,6.90
2023-05-14T21:19:28.841Z,8.13
2023-05-14T21:21:55.452Z,7.10
2023-05-14T21:24:21.976Z,7.57
2023-05-14T21:26:48.650Z,7.10
2023-05-14T21:29:15.437Z,7.68
2023-05-14T21:31:41.998Z,7.35
2023-05-14T21:34:08.562Z,6.85
2023-05-14T21:36:35.693Z,8.30
2023-05-14T21:39:02.285Z,7.35
2023-05-14T21:41:30.514Z,7.68
2023-05-14T21:43:57.016Z,8.05
2023-05-14T21:46:23.635Z,8.02
2023-05-14T21:48:50.272Z,7.95
2023-05-14T21:51:17.015Z,7.75
2023-05-14T21:53:43.553Z,8.23
2023-05-14T21:56:10.144Z,7.97
2023-05-14T21:58:36.812Z,8.45
2023-05-14T22:01:03.372Z,8.30
2023-05-14T22:03:30.705Z,8.70
2023-05-14T22:05:57.552Z,7.68
2023-05-14T22:08:24.275Z,9.05
2023-05-14T22:10:51.054Z,7.72
2023-05-14T22:13:17.608Z,8.35
2023-05-14T22:15:44.554Z,8.40
2023-05-14T22:18:12.789Z,9.00
2023-05-14T22:20:39.994Z,9.43
2023-05-14T22:23:06.562Z,9.45
2023-05-14T22:25:33.114Z,9.48
2023-05-14T22:27:59.656Z,9.68
2023-05-14T22:30:26.220Z,9.73
2023-05-14T22:32:52.749Z,9.63
2023-05-14T22:35:19.371Z,9.55
2023-05-14T22:37:45.965Z,9.98
2023-05-14T22:40:13.635Z,10.10
2023-05-14T22:42:40.249Z,10.07
2023-05-14T22:45:08.044Z,9.98
2023-05-14T22:47:34.636Z,11.02
2023-05-14T22:50:01.192Z,10.10
2023-05-14T22:52:27.758Z,11.40
2023-05-14T22:54:54.530Z,11.80
2023-05-14T22:57:21.090Z,10.77
2023-05-14T22:59:47.634Z,9.68
2023-05-14T23:02:14.232Z,11.45
2023-05-14T23:04:40.848Z,10.65
2023-05-14T23:07:08.080Z,10.65
2023-05-14T23:09:34.990Z,11.77
2023-05-14T23:12:01.516Z,10.45
2023-05-14T23:14:28.222Z,10.82
2023-05-14T23:16:54.779Z,11.60
2023-05-14T23:19:21.835Z,11.57
2023-05-14T23:21:48.492Z,11.80
2023-05-14T23:24:15.152Z,11.65
2023-05-14T23:26:41.667Z,10.73
2023-05-14T23:29:08.231Z,12.10
2023-05-14T23:31:36.076Z,11.30
2023-05-14T23:34:03.058Z,11.05
2023-05-14T23:36:31.536Z,11.80
2023-05-14T23:39:01.144Z,12.13
2023-05-14T23:41:27.722Z,11.38
2023-05-14T23:43:55.437Z,12.00
2023-05-14T23:46:22.414Z,11.65
2023-05-14T23:48:49.269Z,11.80
2023-05-14T23:51:16.972Z,11.80
2023-05-14T23:53:43.766Z,11.63
2023-05-14T23:56:11.635Z,11.90
2023-05-14T23:58:38.181Z,12.15
